Airport View

Enter AWOS ICAO identifier for current METAR.

ex. KFNL

KGLW 040515Z AUTO 00000KT 1 3/4SM BR VV007 17/17 A2996 RMK AO2 VIS 1V3 T01740174

4 Aug 2020 05:31

Frequency: 118.525

Phone: 270-678-5787

Other Area AWOS: KBWG - KTZV - K1M5 - KAAS

TAF KBWG 032338Z 0400/0424 20005KT P6SM VCTS SCT040CB FM040200 33003KT P6SM SCT250 FM040900 00000KT 5SM BR SCT018 FM041100 00000KT 3SM BR OVC007 FM041400 31005KT P6SM BKN018 FM041700 31006KT P6SM SCT045